createdAt,value
2023-03-15T00:00:14.293Z,70.18
2023-03-15T00:02:41.953Z,67.83
2023-03-15T00:05:12.874Z,68.55
2023-03-15T00:07:39.746Z,66.68
2023-03-15T00:10:06.710Z,67.39
2023-03-15T00:12:34.497Z,66.33
2023-03-15T00:15:01.697Z,66.96
2023-03-15T00:17:34.838Z,68.22
2023-03-15T00:20:04.758Z,69.23
2023-03-15T00:22:31.658Z,67.80
2023-03-15T00:24:58.761Z,66.46
2023-03-15T00:27:26.502Z,68.35
2023-03-15T00:29:53.229Z,69.14
2023-03-15T00:32:20.727Z,68.74
2023-03-15T00:34:50.129Z,70.35
2023-03-15T00:37:17.271Z,71.25
2023-03-15T00:39:45.573Z,73.01
2023-03-15T00:42:15.704Z,71.67
2023-03-15T00:44:45.365Z,71.75
2023-03-15T00:47:12.701Z,71.79
2023-03-15T00:49:40.597Z,71.34
2023-03-15T00:52:08.016Z,71.61
2023-03-15T00:54:35.185Z,69.57
2023-03-15T00:57:04.276Z,68.56
2023-03-15T00:59:34.911Z,68.97
2023-03-15T01:02:05.835Z,70.77
2023-03-15T01:04:33.953Z,68.50
2023-03-15T01:07:01.210Z,68.88
2023-03-15T01:09:30.008Z,67.67
2023-03-15T01:11:56.714Z,68.67
2023-03-15T01:14:23.953Z,70.06
2023-03-15T01:16:51.082Z,69.95
2023-03-15T01:19:18.789Z,70.37
2023-03-15T01:21:47.904Z,68.38
2023-03-15T01:24:15.166Z,68.57
2023-03-15T01:26:41.949Z,67.78
2023-03-15T01:29:10.021Z,69.95
2023-03-15T01:31:37.870Z,73.58
2023-03-15T01:34:05.823Z,74.96
2023-03-15T01:36:32.398Z,72.55
2023-03-15T01:38:58.945Z,68.64
2023-03-15T01:41:27.427Z,66.87
2023-03-15T01:43:54.391Z,67.39
2023-03-15T01:46:34.688Z,67.20
2023-03-15T01:49:09.854Z,67.71
2023-03-15T01:51:43.265Z,69.08
2023-03-15T01:54:43.587Z,71.57
2023-03-15T01:57:11.583Z,70.05
2023-03-15T01:59:40.530Z,71.31
2023-03-15T02:02:08.001Z,69.82
2023-03-15T02:04:38.091Z,69.06
2023-03-15T02:07:06.133Z,71.45
2023-03-15T02:09:39.226Z,69.64
2023-03-15T02:12:06.206Z,67.51
2023-03-15T02:14:34.330Z,66.82
2023-03-15T02:17:01.541Z,67.06
2023-03-15T02:19:43.278Z,70.71
2023-03-15T02:22:13.844Z,69.02
2023-03-15T02:24:43.677Z,67.85
2023-03-15T02:27:11.713Z,67.95
2023-03-15T02:29:39.649Z,68.38
2023-03-15T02:32:06.633Z,67.44
2023-03-15T02:34:33.624Z,68.19
2023-03-15T02:37:00.769Z,67.23
2023-03-15T02:39:28.240Z,67.16
2023-03-15T02:41:57.514Z,68.95
2023-03-15T02:44:37.156Z,69.22
2023-03-15T02:47:06.730Z,68.53
2023-03-15T02:49:36.423Z,68.66
2023-03-15T02:52:03.784Z,68.97
2023-03-15T02:54:34.404Z,71.31
2023-03-15T02:57:02.320Z,73.44
2023-03-15T02:59:29.069Z,72.54
2023-03-15T03:01:56.160Z,71.70
2023-03-15T03:04:22.929Z,70.67
2023-03-15T03:06:49.742Z,68.58
2023-03-15T03:09:17.754Z,68.11
2023-03-15T03:11:45.847Z,71.35
2023-03-15T03:14:15.737Z,72.20
2023-03-15T03:16:43.324Z,75.23
2023-03-15T03:19:14.590Z,75.86
2023-03-15T03:21:43.658Z,73.80
2023-03-15T03:24:12.172Z,76.46
2023-03-15T03:26:39.091Z,73.71
2023-03-15T03:29:07.421Z,72.36
2023-03-15T03:31:35.394Z,75.10
2023-03-15T03:34:02.811Z,73.06
2023-03-15T03:36:29.539Z,74.17
2023-03-15T03:38:57.217Z,75.06
2023-03-15T03:41:24.450Z,72.89
2023-03-15T03:43:51.289Z,68.89
2023-03-15T03:46:19.382Z,65.53
2023-03-15T03:48:45.896Z,64.31
2023-03-15T03:51:14.567Z,63.97
2023-03-15T03:53:43.675Z,63.46
2023-03-15T03:56:11.795Z,63.46
2023-03-15T03:58:38.557Z,63.33
2023-03-15T04:01:05.631Z,64.91
2023-03-15T04:03:32.351Z,67.34
2023-03-15T04:06:00.071Z,65.74
2023-03-15T04:08:27.083Z,66.78
2023-03-15T04:10:54.878Z,65.12
2023-03-15T04:13:21.931Z,64.40
2023-03-15T04:15:48.626Z,64.64
2023-03-15T04:18:15.464Z,64.19
2023-03-15T04:20:47.005Z,65.16
2023-03-15T04:23:15.641Z,68.52
2023-03-15T04:25:42.594Z,65.78
2023-03-15T04:28:10.733Z,63.99
2023-03-15T04:30:37.651Z,64.48
2023-03-15T04:33:05.452Z,64.15
2023-03-15T04:35:36.062Z,63.18
2023-03-15T04:38:04.157Z,62.30
2023-03-15T04:40:35.110Z,62.62
2023-03-15T04:43:05.747Z,62.87
2023-03-15T04:45:33.591Z,63.60
2023-03-15T04:48:02.421Z,63.27
2023-03-15T04:50:30.941Z,63.43
2023-03-15T04:52:58.105Z,63.01
2023-03-15T04:55:24.693Z,62.52
2023-03-15T04:57:51.451Z,63.04
2023-03-15T05:00:18.706Z,62.00
2023-03-15T05:02:54.715Z,63.20
2023-03-15T05:05:24.289Z,64.12
2023-03-15T05:07:51.242Z,63.92
2023-03-15T05:10:19.543Z,64.36
2023-03-15T05:12:46.025Z,64.30
2023-03-15T05:15:13.169Z,64.83
2023-03-15T05:17:40.024Z,65.52
2023-03-15T05:20:13.719Z,65.48
2023-03-15T05:22:41.199Z,65.31
2023-03-15T05:25:08.949Z,64.75
2023-03-15T05:27:37.141Z,64.93
2023-03-15T05:30:05.184Z,65.38
2023-03-15T05:32:35.910Z,65.21
2023-03-15T05:35:03.736Z,64.57
2023-03-15T05:37:32.649Z,63.96
2023-03-15T05:40:01.652Z,65.04
2023-03-15T05:42:29.629Z,65.54
2023-03-15T05:44:57.163Z,65.42
2023-03-15T05:47:24.285Z,65.65
2023-03-15T05:49:50.913Z,68.20
2023-03-15T05:52:19.387Z,68.53
2023-03-15T05:54:46.481Z,68.29
2023-03-15T05:57:14.603Z,71.03
2023-03-15T05:59:43.090Z,68.06
2023-03-15T06:02:12.431Z,71.12
2023-03-15T06:04:40.175Z,72.67
2023-03-15T06:07:07.010Z,70.80
2023-03-15T06:09:33.624Z,70.22
2023-03-15T06:12:01.194Z,70.66
2023-03-15T06:14:28.330Z,71.73
2023-03-15T06:16:56.121Z,73.71
2023-03-15T06:19:23.574Z,71.86
2023-03-15T06:21:52.068Z,70.09
2023-03-15T06:24:18.988Z,69.57
2023-03-15T06:26:45.961Z,70.58
2023-03-15T06:29:12.521Z,70.42
2023-03-15T06:31:38.989Z,70.13
2023-03-15T06:34:06.244Z,69.04
2023-03-15T06:36:33.053Z,68.78
2023-03-15T06:39:03.015Z,68.58
2023-03-15T06:41:29.528Z,68.35
2023-03-15T06:43:56.121Z,67.73
2023-03-15T06:46:23.380Z,67.07
2023-03-15T06:48:50.211Z,68.31
2023-03-15T06:51:17.181Z,68.99
2023-03-15T06:53:44.942Z,68.19
2023-03-15T06:56:12.914Z,68.30
2023-03-15T06:58:40.083Z,68.38
2023-03-15T07:01:08.131Z,67.80
2023-03-15T07:03:34.874Z,66.65
2023-03-15T07:06:01.633Z,65.77
2023-03-15T07:08:28.510Z,68.03
2023-03-15T07:10:55.157Z,67.07
2023-03-15T07:13:23.405Z,65.54
2023-03-15T07:15:54.101Z,66.46
2023-03-15T07:18:21.072Z,67.08
2023-03-15T07:20:49.255Z,67.42
2023-03-15T07:23:16.295Z,68.32
2023-03-15T07:25:54.274Z,70.09
2023-03-15T07:28:21.603Z,71.74
2023-03-15T07:30:54.478Z,73.95
2023-03-15T07:33:22.602Z,79.60
2023-03-15T07:35:50.250Z,80.77
2023-03-15T07:38:17.495Z,77.91
2023-03-15T07:40:44.005Z,75.63
2023-03-15T07:43:10.797Z,72.57
2023-03-15T07:45:37.801Z,68.04
2023-03-15T07:48:04.538Z,67.52
2023-03-15T07:50:30.983Z,69.30
2023-03-15T07:52:57.477Z,67.47
2023-03-15T07:55:24.141Z,66.64
2023-03-15T07:57:53.322Z,65.75
2023-03-15T08:00:20.969Z,64.57
2023-03-15T08:02:48.955Z,65.34
2023-03-15T08:05:19.947Z,64.22
2023-03-15T08:07:47.449Z,64.00
2023-03-15T08:10:15.599Z,63.33
2023-03-15T08:12:43.113Z,64.03
2023-03-15T08:15:11.383Z,63.79
2023-03-15T08:17:39.870Z,63.80
2023-03-15T08:20:08.572Z,65.70
2023-03-15T08:22:36.129Z,65.14
2023-03-15T08:25:04.558Z,65.62
2023-03-15T08:27:31.219Z,67.74
2023-03-15T08:29:58.593Z,68.68
2023-03-15T08:32:25.120Z,67.70
2023-03-15T08:34:53.165Z,68.57
2023-03-15T08:37:20.346Z,68.42
2023-03-15T08:39:47.156Z,67.79
2023-03-15T08:42:14.035Z,66.80
2023-03-15T08:44:40.666Z,67.96
2023-03-15T08:47:08.290Z,69.02
2023-03-15T08:49:35.092Z,67.14
2023-03-15T08:52:01.974Z,67.01
2023-03-15T08:54:28.600Z,65.70
2023-03-15T08:56:55.106Z,67.61
2023-03-15T08:59:31.275Z,67.04
2023-03-15T09:02:00.135Z,66.90
2023-03-15T09:04:27.031Z,65.27
2023-03-15T09:06:54.006Z,65.71
2023-03-15T09:09:20.828Z,64.87
2023-03-15T09:11:47.513Z,64.32
2023-03-15T09:14:13.966Z,63.71
2023-03-15T09:16:40.860Z,68.34
2023-03-15T09:19:07.786Z,69.00
2023-03-15T09:21:34.248Z,68.14
2023-03-15T09:24:01.059Z,67.10
2023-03-15T09:26:29.564Z,65.32
2023-03-15T09:28:56.373Z,69.04
2023-03-15T09:31:25.401Z,68.64
2023-03-15T09:33:52.387Z,69.23
2023-03-15T09:36:21.071Z,67.24
2023-03-15T09:38:49.558Z,67.43
2023-03-15T09:41:34.748Z,68.67
2023-03-15T09:44:04.350Z,67.95
2023-03-15T09:46:34.101Z,67.18
2023-03-15T09:49:06.022Z,66.16
2023-03-15T09:51:35.348Z,66.50
2023-03-15T09:54:05.961Z,66.63
2023-03-15T09:56:38.614Z,68.62
2023-03-15T09:59:06.153Z,70.16
2023-03-15T10:01:36.555Z,69.77
2023-03-15T10:04:08.187Z,70.06
2023-03-15T10:06:37.776Z,68.91
2023-03-15T10:09:12.953Z,68.54
2023-03-15T10:11:58.876Z,67.85
2023-03-15T10:14:45.086Z,69.31
2023-03-15T10:17:13.901Z,70.13
2023-03-15T10:19:45.903Z,71.38
2023-03-15T10:22:25.685Z,66.78
2023-03-15T10:24:59.487Z,64.17
2023-03-15T10:27:34.481Z,64.67
2023-03-15T10:30:01.594Z,67.82
2023-03-15T10:32:50.383Z,66.27
2023-03-15T10:35:27.760Z,64.59
2023-03-15T10:38:03.006Z,65.24
2023-03-15T10:40:46.654Z,66.71
2023-03-15T10:43:21.047Z,65.48
2023-03-15T10:45:58.929Z,67.00
2023-03-15T10:48:27.322Z,67.98
2023-03-15T10:50:58.363Z,70.43
2023-03-15T10:53:25.623Z,68.47
2023-03-15T10:56:02.538Z,66.32
2023-03-15T10:58:39.109Z,65.59
2023-03-15T11:01:10.514Z,65.48
2023-03-15T11:03:39.039Z,65.23
2023-03-15T11:06:19.467Z,66.39
2023-03-15T11:08:46.041Z,63.34
2023-03-15T11:11:12.501Z,62.62
2023-03-15T11:13:43.015Z,62.57
2023-03-15T11:16:15.880Z,62.11
2023-03-15T11:18:55.986Z,61.36
2023-03-15T11:21:24.032Z,60.09
2023-03-15T11:23:51.685Z,60.68
2023-03-15T11:26:33.400Z,61.86
2023-03-15T11:29:13.435Z,60.53
2023-03-15T11:31:40.118Z,59.07
2023-03-15T11:34:09.291Z,56.91
2023-03-15T11:36:40.202Z,57.09
2023-03-15T11:39:09.036Z,56.69
2023-03-15T11:41:40.960Z,59.05
2023-03-15T11:44:16.506Z,59.79
2023-03-15T11:46:45.778Z,58.28
2023-03-15T11:49:13.510Z,58.26
2023-03-15T11:51:40.035Z,56.29
2023-03-15T11:54:11.328Z,54.33
2023-03-15T11:56:44.127Z,53.73
2023-03-15T11:59:16.359Z,56.42
2023-03-15T12:01:47.104Z,60.05
2023-03-15T12:04:32.441Z,60.46
2023-03-15T12:07:04.500Z,59.71
2023-03-15T12:09:37.697Z,60.18
2023-03-15T12:12:27.574Z,61.87
2023-03-15T12:15:13.656Z,61.44
2023-03-15T12:17:43.462Z,60.38
2023-03-15T12:20:19.551Z,60.91
2023-03-15T12:22:49.047Z,62.67
2023-03-15T12:25:16.922Z,60.81
2023-03-15T12:27:47.720Z,60.06
2023-03-15T12:30:23.004Z,59.30
2023-03-15T12:32:52.798Z,60.63
2023-03-15T12:35:21.620Z,58.51
2023-03-15T12:37:49.155Z,59.28
2023-03-15T12:40:16.156Z,58.97
2023-03-15T12:42:46.755Z,56.64
2023-03-15T12:45:16.825Z,57.15
2023-03-15T12:47:50.904Z,57.01
2023-03-15T12:50:37.108Z,55.73
2023-03-15T12:53:07.253Z,54.64
2023-03-15T12:55:35.713Z,53.84
2023-03-15T12:58:04.102Z,55.05
2023-03-15T13:00:33.678Z,54.62
2023-03-15T13:03:08.958Z,55.15
2023-03-15T13:06:03.471Z,56.73
2023-03-15T13:08:31.866Z,56.68
2023-03-15T13:11:17.260Z,58.24
2023-03-15T13:13:53.348Z,57.55
2023-03-15T13:16:39.051Z,60.87
2023-03-15T13:19:24.387Z,63.98
2023-03-15T13:22:02.208Z,65.59
2023-03-15T13:24:37.822Z,65.55
2023-03-15T13:27:08.758Z,64.87
2023-03-15T13:29:35.327Z,63.29
2023-03-15T13:32:07.271Z,62.70
2023-03-15T13:34:35.115Z,62.50
2023-03-15T13:37:04.665Z,65.53
2023-03-15T13:39:32.372Z,68.60
2023-03-15T13:41:58.891Z,66.73
2023-03-15T13:44:26.143Z,66.25
2023-03-15T13:46:53.495Z,67.62
2023-03-15T13:49:23.719Z,67.00
2023-03-15T13:51:52.284Z,63.93
2023-03-15T13:54:23.809Z,64.54
2023-03-15T13:56:56.837Z,64.47
2023-03-15T13:59:32.939Z,62.80
2023-03-15T14:02:00.193Z,68.42
2023-03-15T14:04:27.059Z,73.46
2023-03-15T14:07:04.790Z,78.74
2023-03-15T14:09:31.422Z,79.94
2023-03-15T14:12:05.842Z,79.90
2023-03-15T14:14:36.090Z,80.10
2023-03-15T14:17:08.718Z,76.52
2023-03-15T14:19:36.087Z,74.22
2023-03-15T14:22:15.789Z,74.73
2023-03-15T14:24:43.513Z,76.55
2023-03-15T14:27:30.702Z,79.11
2023-03-15T14:30:01.812Z,80.93
2023-03-15T14:32:30.222Z,81.03
2023-03-15T14:35:08.023Z,80.25
2023-03-15T14:37:43.098Z,75.88
2023-03-15T14:40:23.334Z,74.45
2023-03-15T14:42:50.822Z,69.47
2023-03-15T14:45:18.500Z,69.05
2023-03-15T14:47:56.035Z,67.58
2023-03-15T14:50:24.108Z,64.45
2023-03-15T14:52:51.522Z,63.78
2023-03-15T14:55:27.741Z,64.54
2023-03-15T14:57:54.244Z,63.71
2023-03-15T15:00:20.843Z,64.41
2023-03-15T15:02:55.654Z,63.20
2023-03-15T15:05:27.186Z,61.78
2023-03-15T15:07:56.753Z,63.87
2023-03-15T15:10:24.537Z,59.88
2023-03-15T15:13:04.853Z,60.38
2023-03-15T15:15:43.706Z,57.99
2023-03-15T15:18:14.190Z,56.54
2023-03-15T15:20:42.233Z,57.59
2023-03-15T15:23:19.721Z,56.46
2023-03-15T15:25:48.135Z,59.03
2023-03-15T15:28:27.250Z,62.68
2023-03-15T15:31:02.278Z,66.72
2023-03-15T15:33:28.749Z,65.51
2023-03-15T15:35:57.959Z,64.79
2023-03-15T15:38:28.420Z,69.00
2023-03-15T15:40:54.846Z,68.25
2023-03-15T15:43:22.456Z,67.31
2023-03-15T15:45:49.736Z,70.55
2023-03-15T15:48:19.428Z,73.90
2023-03-15T15:50:47.490Z,70.96
2023-03-15T15:53:18.294Z,69.21
2023-03-15T15:55:47.786Z,67.72
2023-03-15T15:58:15.294Z,64.06
2023-03-15T16:00:41.975Z,65.30
2023-03-15T16:03:17.460Z,65.52
2023-03-15T16:05:44.517Z,65.85
2023-03-15T16:08:22.383Z,66.42
2023-03-15T16:10:50.476Z,63.48
2023-03-15T16:13:18.675Z,60.49
2023-03-15T16:15:47.059Z,60.22
2023-03-15T16:18:14.514Z,58.95
2023-03-15T16:20:43.333Z,58.76
2023-03-15T16:23:16.044Z,58.59
2023-03-15T16:25:44.891Z,57.75
2023-03-15T16:28:13.633Z,57.12
2023-03-15T16:30:41.075Z,56.78
2023-03-15T16:33:18.058Z,55.66
2023-03-15T16:35:45.827Z,54.47
2023-03-15T16:38:15.929Z,54.03
2023-03-15T16:40:48.058Z,53.63
2023-03-15T16:43:15.241Z,52.88
2023-03-15T16:45:42.618Z,53.47
2023-03-15T16:48:10.054Z,52.63
2023-03-15T16:50:40.016Z,54.11
2023-03-15T16:53:11.400Z,53.10
2023-03-15T16:55:38.651Z,52.30
2023-03-15T16:58:13.731Z,53.17
2023-03-15T17:00:44.637Z,54.27
2023-03-15T17:03:29.263Z,53.35
2023-03-15T17:05:57.092Z,52.84
2023-03-15T17:08:28.277Z,51.89
2023-03-15T17:10:54.876Z,52.28
2023-03-15T17:13:27.632Z,52.79
2023-03-15T17:15:59.016Z,52.53
2023-03-15T17:18:28.883Z,52.51
2023-03-15T17:20:58.427Z,53.23
2023-03-15T17:23:26.540Z,53.92
2023-03-15T17:26:09.469Z,52.86
2023-03-15T17:28:37.452Z,54.35
2023-03-15T17:31:23.990Z,53.65
2023-03-15T17:33:55.169Z,53.44
2023-03-15T17:36:25.648Z,52.56
2023-03-15T17:38:55.045Z,51.44
2023-03-15T17:41:32.486Z,51.15
2023-03-15T17:44:00.440Z,51.62
2023-03-15T17:46:31.213Z,52.98
2023-03-15T17:49:00.101Z,53.39
2023-03-15T17:51:36.832Z,53.63
2023-03-15T17:54:13.022Z,52.80
2023-03-15T17:56:41.590Z,53.44
2023-03-15T17:59:11.007Z,53.88
2023-03-15T18:01:47.151Z,54.60
2023-03-15T18:04:17.516Z,53.43
2023-03-15T18:06:46.454Z,53.07
2023-03-15T18:09:16.543Z,52.77
2023-03-15T18:11:46.074Z,51.71
2023-03-15T18:14:24.811Z,52.36
2023-03-15T18:16:54.607Z,52.38
2023-03-15T18:19:21.984Z,52.05
2023-03-15T18:21:49.916Z,51.33
2023-03-15T18:24:17.590Z,51.54
2023-03-15T18:26:45.440Z,50.87
2023-03-15T18:29:12.757Z,50.73
2023-03-15T18:31:40.957Z,50.52
2023-03-15T18:34:17.532Z,50.32
2023-03-15T18:36:45.813Z,49.71
2023-03-15T18:39:13.358Z,49.98
2023-03-15T18:41:40.628Z,50.78
2023-03-15T18:44:08.101Z,51.13
2023-03-15T18:46:36.830Z,51.66
2023-03-15T18:49:07.735Z,52.27
2023-03-15T18:51:35.469Z,52.67
2023-03-15T18:54:03.778Z,53.24
2023-03-15T18:56:34.741Z,54.23
2023-03-15T18:59:02.880Z,53.89
2023-03-15T19:01:30.564Z,53.58
2023-03-15T19:03:58.824Z,54.02
2023-03-15T19:06:27.395Z,53.96
2023-03-15T19:08:55.430Z,54.57
2023-03-15T19:11:24.462Z,54.21
2023-03-15T19:14:04.628Z,54.40
2023-03-15T19:16:32.406Z,55.70
2023-03-15T19:18:59.829Z,55.13
2023-03-15T19:21:30.259Z,54.34
2023-03-15T19:23:58.331Z,54.83
2023-03-15T19:26:26.732Z,54.27
2023-03-15T19:28:55.417Z,54.63
2023-03-15T19:31:24.064Z,54.39
2023-03-15T19:33:51.378Z,54.44
2023-03-15T19:36:20.096Z,54.72
2023-03-15T19:38:56.430Z,54.67
2023-03-15T19:41:23.848Z,54.55
2023-03-15T19:43:53.205Z,54.69
2023-03-15T19:46:20.895Z,56.18
2023-03-15T19:48:48.553Z,55.50
2023-03-15T19:51:17.501Z,55.20
2023-03-15T19:53:44.926Z,55.17
2023-03-15T19:56:12.611Z,55.22
2023-03-15T19:58:41.336Z,55.50
2023-03-15T20:01:09.893Z,55.46
2023-03-15T20:03:40.752Z,54.89
2023-03-15T20:06:14.855Z,54.74
2023-03-15T20:08:43.326Z,54.72
2023-03-15T20:11:15.761Z,55.02
2023-03-15T20:13:45.051Z,54.64
2023-03-15T20:16:13.804Z,54.63
2023-03-15T20:18:41.284Z,55.14
2023-03-15T20:21:08.353Z,55.05
2023-03-15T20:23:37.360Z,55.10
2023-03-15T20:26:11.589Z,55.11
2023-03-15T20:28:39.765Z,55.08
2023-03-15T20:31:16.958Z,55.00
2023-03-15T20:33:44.247Z,55.19
2023-03-15T20:36:11.529Z,55.15
2023-03-15T20:38:39.372Z,55.20
2023-03-15T20:41:06.955Z,55.07
2023-03-15T20:43:34.863Z,55.34
2023-03-15T20:46:04.433Z,55.83
2023-03-15T20:48:37.268Z,55.59
2023-03-15T20:51:05.448Z,56.50
2023-03-15T20:53:35.600Z,56.00
2023-03-15T20:56:04.148Z,56.13
2023-03-15T20:58:31.808Z,56.28
2023-03-15T21:01:08.008Z,56.72
2023-03-15T21:03:36.074Z,56.49
2023-03-15T21:06:04.932Z,56.03
2023-03-15T21:08:32.495Z,56.14
2023-03-15T21:11:08.075Z,56.72
2023-03-15T21:13:35.160Z,57.17
2023-03-15T21:16:04.597Z,58.17
2023-03-15T21:18:40.472Z,58.24
2023-03-15T21:21:08.198Z,58.29
2023-03-15T21:23:43.336Z,57.94
2023-03-15T21:26:11.506Z,58.04
2023-03-15T21:28:40.097Z,58.12
2023-03-15T21:31:07.388Z,57.73
2023-03-15T21:33:34.501Z,57.70
2023-03-15T21:36:30.576Z,58.61
2023-03-15T21:38:57.498Z,58.08
2023-03-15T21:41:25.401Z,57.60
2023-03-15T21:43:52.002Z,57.65
2023-03-15T21:46:22.329Z,58.71
2023-03-15T21:48:49.549Z,58.78
2023-03-15T21:51:36.849Z,58.30
2023-03-15T21:54:05.068Z,58.00
2023-03-15T21:56:32.885Z,58.32
2023-03-15T21:58:59.679Z,58.04
2023-03-15T22:01:35.151Z,58.71
2023-03-15T22:04:02.482Z,57.94
2023-03-15T22:06:30.185Z,57.11
2023-03-15T22:09:00.449Z,57.19
2023-03-15T22:11:28.644Z,57.88
2023-03-15T22:13:55.985Z,57.89
2023-03-15T22:16:23.720Z,58.72
2023-03-15T22:18:56.496Z,58.20
2023-03-15T22:21:24.204Z,58.65
2023-03-15T22:23:51.598Z,58.34
2023-03-15T22:26:22.619Z,58.79
2023-03-15T22:28:49.979Z,59.11
2023-03-15T22:31:17.195Z,58.80
2023-03-15T22:33:44.563Z,59.57
2023-03-15T22:36:19.748Z,59.13
2023-03-15T22:38:50.289Z,58.71
2023-03-15T22:41:20.055Z,58.74
2023-03-15T22:43:47.294Z,58.59
2023-03-15T22:46:15.559Z,58.55
2023-03-15T22:48:43.504Z,58.68
2023-03-15T22:51:14.599Z,58.89
2023-03-15T22:53:42.978Z,58.10
2023-03-15T22:56:10.969Z,58.18
2023-03-15T22:58:39.237Z,58.01
2023-03-15T23:01:06.728Z,58.56
2023-03-15T23:03:34.149Z,58.83
2023-03-15T23:06:04.155Z,58.96
2023-03-15T23:08:35.073Z,58.81
2023-03-15T23:11:02.633Z,58.77
2023-03-15T23:13:32.298Z,58.06
2023-03-15T23:16:04.473Z,57.90
2023-03-15T23:18:37.079Z,58.00
2023-03-15T23:21:05.668Z,58.38
2023-03-15T23:23:36.540Z,57.93
2023-03-15T23:26:04.792Z,58.10
2023-03-15T23:28:32.759Z,58.20
2023-03-15T23:31:04.599Z,57.99
2023-03-15T23:33:37.205Z,58.57
2023-03-15T23:36:09.753Z,58.59
2023-03-15T23:38:37.682Z,58.64
2023-03-15T23:41:05.966Z,58.96
2023-03-15T23:43:34.710Z,59.71
2023-03-15T23:46:05.129Z,59.60
2023-03-15T23:48:35.756Z,59.64
2023-03-15T23:51:03.384Z,60.00
2023-03-15T23:53:31.076Z,60.23
2023-03-15T23:55:59.408Z,60.34
2023-03-15T23:58:27.914Z,60.15
